sensor_id;sensor_type;location;lat;lon;timestamp;temperature;humidity
38359;DHT22;42072;48.044;14.416;2024-02-26T00:01:00;1.00;1.00
38359;DHT22;42072;48.044;14.416;2024-02-26T00:03:28;1.00;1.00
38359;DHT22;42072;48.044;14.416;2024-02-26T00:05:56;1.10;1.00
38359;DHT22;42072;48.044;14.416;2024-02-26T00:08:23;1.00;1.00
38359;DHT22;42072;48.044;14.416;2024-02-26T00:10:50;1.00;1.00
38359;DHT22;42072;48.044;14.416;2024-02-26T00:13:17;0.90;1.00
38359;DHT22;42072;48.044;14.416;2024-02-26T00:15:44;1.00;1.00
38359;DHT22;42072;48.044;14.416;2024-02-26T00:18:11;0.90;1.00
38359;DHT22;42072;48.044;14.416;2024-02-26T00:20:39;1.00;1.00
38359;DHT22;42072;48.044;14.416;2024-02-26T00:23:08;1.00;1.00
38359;DHT22;42072;48.044;14.416;2024-02-26T00:25:35;1.00;1.00
38359;DHT22;42072;48.044;14.416;2024-02-26T00:28:04;1.00;1.00
38359;DHT22;42072;48.044;14.416;2024-02-26T00:30:32;1.00;1.00
38359;DHT22;42072;48.044;14.416;2024-02-26T00:32:59;1.00;1.00
38359;DHT22;42072;48.044;14.416;2024-02-26T00:35:27;0.90;1.00
38359;DHT22;42072;48.044;14.416;2024-02-26T00:37:54;0.90;1.00
38359;DHT22;42072;48.044;14.416;2024-02-26T00:40:21;1.00;1.00
38359;DHT22;42072;48.044;14.416;2024-02-26T00:42:48;0.90;1.00
38359;DHT22;42072;48.044;14.416;2024-02-26T00:45:15;0.90;1.00
38359;DHT22;42072;48.044;14.416;2024-02-26T00:47:43;0.80;1.00
38359;DHT22;42072;48.044;14.416;2024-02-26T00:50:12;0.90;1.00
38359;DHT22;42072;48.044;14.416;2024-02-26T00:52:40;0.90;1.00
38359;DHT22;42072;48.044;14.416;2024-02-26T00:55:07;0.90;1.00
38359;DHT22;42072;48.044;14.416;2024-02-26T00:57:35;0.90;1.00
38359;DHT22;42072;48.044;14.416;2024-02-26T01:00:02;0.90;1.00
38359;DHT22;42072;48.044;14.416;2024-02-26T01:02:30;0.90;1.00
38359;DHT22;42072;48.044;14.416;2024-02-26T01:04:57;0.90;1.00
38359;DHT22;42072;48.044;14.416;2024-02-26T01:07:24;1.00;1.00
38359;DHT22;42072;48.044;14.416;2024-02-26T01:09:52;0.90;1.00
38359;DHT22;42072;48.044;14.416;2024-02-26T01:12:19;0.90;1.00
38359;DHT22;42072;48.044;14.416;2024-02-26T01:14:46;0.80;1.00
38359;DHT22;42072;48.044;14.416;2024-02-26T01:17:13;0.80;1.00
38359;DHT22;42072;48.044;14.416;2024-02-26T01:19:40;0.80;1.00
38359;DHT22;42072;48.044;14.416;2024-02-26T01:22:08;0.80;1.00
38359;DHT22;42072;48.044;14.416;2024-02-26T01:24:35;0.80;1.00
38359;DHT22;42072;48.044;14.416;2024-02-26T01:27:02;0.80;1.00
38359;DHT22;42072;48.044;14.416;2024-02-26T01:29:29;0.80;1.00
38359;DHT22;42072;48.044;14.416;2024-02-26T01:31:56;0.80;1.00
38359;DHT22;42072;48.044;14.416;2024-02-26T01:34:23;0.90;1.00
38359;DHT22;42072;48.044;14.416;2024-02-26T01:36:51;0.90;1.00
38359;DHT22;42072;48.044;14.416;2024-02-26T01:39:18;0.80;1.00
38359;DHT22;42072;48.044;14.416;2024-02-26T01:41:45;0.90;1.00
38359;DHT22;42072;48.044;14.416;2024-02-26T01:44:12;0.90;1.00
38359;DHT22;42072;48.044;14.416;2024-02-26T01:46:40;0.90;1.00
38359;DHT22;42072;48.044;14.416;2024-02-26T01:49:11;0.80;1.00
38359;DHT22;42072;48.044;14.416;2024-02-26T01:51:39;0.80;1.00
38359;DHT22;42072;48.044;14.416;2024-02-26T01:54:08;0.80;1.00
38359;DHT22;42072;48.044;14.416;2024-02-26T01:56:36;0.70;1.00
38359;DHT22;42072;48.044;14.416;2024-02-26T01:59:04;0.70;1.00
38359;DHT22;42072;48.044;14.416;2024-02-26T02:01:32;0.60;1.00
38359;DHT22;42072;48.044;14.416;2024-02-26T02:04:00;0.70;1.00
38359;DHT22;42072;48.044;14.416;2024-02-26T02:06:27;0.70;1.00
38359;DHT22;42072;48.044;14.416;2024-02-26T02:08:55;0.60;1.00
38359;DHT22;42072;48.044;14.416;2024-02-26T02:11:22;0.60;1.00
38359;DHT22;42072;48.044;14.416;2024-02-26T02:13:49;0.60;1.00
38359;DHT22;42072;48.044;14.416;2024-02-26T02:16:16;0.50;1.00
38359;DHT22;42072;48.044;14.416;2024-02-26T02:18:43;0.50;1.00
38359;DHT22;42072;48.044;14.416;2024-02-26T02:21:10;0.50;1.00
38359;DHT22;42072;48.044;14.416;2024-02-26T02:23:38;0.40;1.00
38359;DHT22;42072;48.044;14.416;2024-02-26T02:26:06;0.40;1.00
38359;DHT22;42072;48.044;14.416;2024-02-26T02:28:33;0.30;1.00
38359;DHT22;42072;48.044;14.416;2024-02-26T02:31:00;0.30;1.00
38359;DHT22;42072;48.044;14.416;2024-02-26T02:33:27;0.30;1.00
38359;DHT22;42072;48.044;14.416;2024-02-26T02:35:55;0.30;1.00
38359;DHT22;42072;48.044;14.416;2024-02-26T02:38:22;0.20;1.00
38359;DHT22;42072;48.044;14.416;2024-02-26T02:40:51;0.20;1.00
38359;DHT22;42072;48.044;14.416;2024-02-26T02:43:18;0.20;1.00
38359;DHT22;42072;48.044;14.416;2024-02-26T02:45:45;0.20;1.00
38359;DHT22;42072;48.044;14.416;2024-02-26T02:48:12;0.20;1.00
38359;DHT22;42072;48.044;14.416;2024-02-26T02:50:39;0.30;1.00
38359;DHT22;42072;48.044;14.416;2024-02-26T02:53:06;0.30;1.00
38359;DHT22;42072;48.044;14.416;2024-02-26T02:55:33;0.30;1.00
38359;DHT22;42072;48.044;14.416;2024-02-26T02:58:01;0.30;1.00
38359;DHT22;42072;48.044;14.416;2024-02-26T03:00:28;0.30;1.00
38359;DHT22;42072;48.044;14.416;2024-02-26T03:02:55;0.30;1.00
38359;DHT22;42072;48.044;14.416;2024-02-26T03:05:22;0.20;1.00
38359;DHT22;42072;48.044;14.416;2024-02-26T03:07:50;0.20;1.00
38359;DHT22;42072;48.044;14.416;2024-02-26T03:10:17;0.30;1.00
38359;DHT22;42072;48.044;14.416;2024-02-26T03:12:44;0.30;1.00
38359;DHT22;42072;48.044;14.416;2024-02-26T03:15:11;0.30;1.00
38359;DHT22;42072;48.044;14.416;2024-02-26T03:17:38;0.30;1.00
38359;DHT22;42072;48.044;14.416;2024-02-26T03:20:06;0.30;1.00
38359;DHT22;42072;48.044;14.416;2024-02-26T03:22:35;0.30;1.00
38359;DHT22;42072;48.044;14.416;2024-02-26T03:25:02;0.40;1.00
38359;DHT22;42072;48.044;14.416;2024-02-26T03:27:29;0.40;1.00
38359;DHT22;42072;48.044;14.416;2024-02-26T03:29:56;0.30;1.00
38359;DHT22;42072;48.044;14.416;2024-02-26T03:32:24;0.30;1.00
38359;DHT22;42072;48.044;14.416;2024-02-26T03:34:51;0.30;1.00
38359;DHT22;42072;48.044;14.416;2024-02-26T03:37:21;0.20;1.00
38359;DHT22;42072;48.044;14.416;2024-02-26T03:39:48;0.10;1.00
38359;DHT22;42072;48.044;14.416;2024-02-26T03:42:16;0.00;1.00
38359;DHT22;42072;48.044;14.416;2024-02-26T03:44:43;0.10;1.00
38359;DHT22;42072;48.044;14.416;2024-02-26T03:47:10;0.10;1.00
38359;DHT22;42072;48.044;14.416;2024-02-26T03:49:37;0.10;1.00
38359;DHT22;42072;48.044;14.416;2024-02-26T03:52:05;0.10;1.00
38359;DHT22;42072;48.044;14.416;2024-02-26T03:54:32;0.20;1.00
38359;DHT22;42072;48.044;14.416;2024-02-26T03:56:59;0.20;1.00
38359;DHT22;42072;48.044;14.416;2024-02-26T03:59:26;0.10;1.00
38359;DHT22;42072;48.044;14.416;2024-02-26T04:01:53;0.10;1.00
38359;DHT22;42072;48.044;14.416;2024-02-26T04:04:20;0.10;1.00
38359;DHT22;42072;48.044;14.416;2024-02-26T04:06:48;0.10;1.00
38359;DHT22;42072;48.044;14.416;2024-02-26T04:09:15;0.10;1.00
38359;DHT22;42072;48.044;14.416;2024-02-26T04:11:43;0.10;1.00
38359;DHT22;42072;48.044;14.416;2024-02-26T04:14:10;0.10;1.00
38359;DHT22;42072;48.044;14.416;2024-02-26T04:16:39;0.10;1.00
38359;DHT22;42072;48.044;14.416;2024-02-26T04:19:06;0.10;1.00
38359;DHT22;42072;48.044;14.416;2024-02-26T04:21:34;0.20;1.00
38359;DHT22;42072;48.044;14.416;2024-02-26T04:24:02;0.20;1.00
38359;DHT22;42072;48.044;14.416;2024-02-26T04:26:29;0.20;1.00
38359;DHT22;42072;48.044;14.416;2024-02-26T04:28:57;0.10;1.00
38359;DHT22;42072;48.044;14.416;2024-02-26T04:31:24;0.10;1.00
38359;DHT22;42072;48.044;14.416;2024-02-26T04:33:51;0.10;1.00
38359;DHT22;42072;48.044;14.416;2024-02-26T04:36:19;0.10;1.00
38359;DHT22;42072;48.044;14.416;2024-02-26T04:38:46;0.00;1.00
38359;DHT22;42072;48.044;14.416;2024-02-26T04:41:13;-0.20;1.00
38359;DHT22;42072;48.044;14.416;2024-02-26T04:43:40;-0.40;1.00
38359;DHT22;42072;48.044;14.416;2024-02-26T04:46:10;-0.30;1.00
38359;DHT22;42072;48.044;14.416;2024-02-26T04:48:38;-0.30;1.00
38359;DHT22;42072;48.044;14.416;2024-02-26T04:51:05;-0.40;1.00
38359;DHT22;42072;48.044;14.416;2024-02-26T04:53:32;-0.40;1.00
38359;DHT22;42072;48.044;14.416;2024-02-26T04:56:00;-0.40;1.00
38359;DHT22;42072;48.044;14.416;2024-02-26T04:58:27;-0.30;1.00
38359;DHT22;42072;48.044;14.416;2024-02-26T05:00:54;-0.40;1.00
38359;DHT22;42072;48.044;14.416;2024-02-26T05:03:21;-0.40;1.00
38359;DHT22;42072;48.044;14.416;2024-02-26T05:05:49;-0.40;1.00
38359;DHT22;42072;48.044;14.416;2024-02-26T05:08:16;-0.50;1.00
38359;DHT22;42072;48.044;14.416;2024-02-26T05:10:45;-0.50;1.00
38359;DHT22;42072;48.044;14.416;2024-02-26T05:13:12;-0.40;1.00
38359;DHT22;42072;48.044;14.416;2024-02-26T05:15:41;-0.40;1.00
38359;DHT22;42072;48.044;14.416;2024-02-26T05:18:08;-0.40;1.00
38359;DHT22;42072;48.044;14.416;2024-02-26T05:20:35;-0.40;1.00
38359;DHT22;42072;48.044;14.416;2024-02-26T05:23:02;-0.40;1.00
38359;DHT22;42072;48.044;14.416;2024-02-26T05:25:30;-0.40;1.00
38359;DHT22;42072;48.044;14.416;2024-02-26T05:27:58;-0.30;1.00
38359;DHT22;42072;48.044;14.416;2024-02-26T05:30:25;-0.40;1.00
38359;DHT22;42072;48.044;14.416;2024-02-26T05:32:53;-0.40;1.00
38359;DHT22;42072;48.044;14.416;2024-02-26T05:35:21;-0.40;1.00
38359;DHT22;42072;48.044;14.416;2024-02-26T05:37:48;-0.30;1.00
38359;DHT22;42072;48.044;14.416;2024-02-26T05:40:15;-0.30;1.00
38359;DHT22;42072;48.044;14.416;2024-02-26T05:42:42;-0.40;1.00
38359;DHT22;42072;48.044;14.416;2024-02-26T05:45:11;-0.40;1.00
38359;DHT22;42072;48.044;14.416;2024-02-26T05:47:39;-0.50;1.00
38359;DHT22;42072;48.044;14.416;2024-02-26T05:50:09;-0.50;1.00
38359;DHT22;42072;48.044;14.416;2024-02-26T05:52:38;-0.50;1.00
38359;DHT22;42072;48.044;14.416;2024-02-26T05:55:05;-0.60;1.00
38359;DHT22;42072;48.044;14.416;2024-02-26T05:57:33;-0.60;1.00
38359;DHT22;42072;48.044;14.416;2024-02-26T06:00:00;-0.50;1.00
38359;DHT22;42072;48.044;14.416;2024-02-26T06:02:31;-0.50;1.00
38359;DHT22;42072;48.044;14.416;2024-02-26T06:04:58;-0.40;1.00
38359;DHT22;42072;48.044;14.416;2024-02-26T06:07:28;-0.40;1.00
38359;DHT22;42072;48.044;14.416;2024-02-26T06:09:55;-0.40;1.00
38359;DHT22;42072;48.044;14.416;2024-02-26T06:12:22;-0.40;1.00
38359;DHT22;42072;48.044;14.416;2024-02-26T06:14:49;-0.40;1.00
38359;DHT22;42072;48.044;14.416;2024-02-26T06:17:17;-0.40;1.00
38359;DHT22;42072;48.044;14.416;2024-02-26T06:19:44;-0.40;1.00
38359;DHT22;42072;48.044;14.416;2024-02-26T06:22:11;-0.50;1.00
38359;DHT22;42072;48.044;14.416;2024-02-26T06:24:38;-0.40;1.00
38359;DHT22;42072;48.044;14.416;2024-02-26T06:27:05;-0.40;1.00
38359;DHT22;42072;48.044;14.416;2024-02-26T06:29:32;-0.30;1.00
38359;DHT22;42072;48.044;14.416;2024-02-26T06:31:59;-0.20;1.00
38359;DHT22;42072;48.044;14.416;2024-02-26T06:34:26;0.10;1.00
38359;DHT22;42072;48.044;14.416;2024-02-26T06:36:54;0.10;1.00
38359;DHT22;42072;48.044;14.416;2024-02-26T06:39:21;0.00;1.00
38359;DHT22;42072;48.044;14.416;2024-02-26T06:41:48;0.10;1.00
38359;DHT22;42072;48.044;14.416;2024-02-26T06:44:15;0.00;1.00
38359;DHT22;42072;48.044;14.416;2024-02-26T06:46:42;0.00;1.00
38359;DHT22;42072;48.044;14.416;2024-02-26T06:49:09;0.10;1.00
38359;DHT22;42072;48.044;14.416;2024-02-26T06:51:36;0.20;1.00
38359;DHT22;42072;48.044;14.416;2024-02-26T06:54:04;0.20;1.00
38359;DHT22;42072;48.044;14.416;2024-02-26T06:56:31;0.20;1.00
38359;DHT22;42072;48.044;14.416;2024-02-26T06:58:58;0.30;1.00
38359;DHT22;42072;48.044;14.416;2024-02-26T07:01:25;0.30;1.00
38359;DHT22;42072;48.044;14.416;2024-02-26T07:03:52;0.50;1.00
38359;DHT22;42072;48.044;14.416;2024-02-26T07:06:19;0.50;1.00
38359;DHT22;42072;48.044;14.416;2024-02-26T07:08:47;0.50;1.00
38359;DHT22;42072;48.044;14.416;2024-02-26T07:11:14;0.60;1.00
38359;DHT22;42072;48.044;14.416;2024-02-26T07:13:42;0.80;1.00
38359;DHT22;42072;48.044;14.416;2024-02-26T07:16:09;0.80;1.00
38359;DHT22;42072;48.044;14.416;2024-02-26T07:18:37;1.00;1.00
38359;DHT22;42072;48.044;14.416;2024-02-26T07:21:04;1.00;1.00
38359;DHT22;42072;48.044;14.416;2024-02-26T07:23:32;1.20;1.00
38359;DHT22;42072;48.044;14.416;2024-02-26T07:25:59;1.30;99.90
38359;DHT22;42072;48.044;14.416;2024-02-26T07:28:26;1.40;99.90
38359;DHT22;42072;48.044;14.416;2024-02-26T07:30:53;1.30;99.90
38359;DHT22;42072;48.044;14.416;2024-02-26T07:33:20;1.30;99.90
38359;DHT22;42072;48.044;14.416;2024-02-26T07:35:47;1.10;99.90
38359;DHT22;42072;48.044;14.416;2024-02-26T07:38:15;1.20;99.90
38359;DHT22;42072;48.044;14.416;2024-02-26T07:40:58;1.20;99.90
38359;DHT22;42072;48.044;14.416;2024-02-26T07:43:29;1.20;99.90
38359;DHT22;42072;48.044;14.416;2024-02-26T07:45:57;1.30;99.90
38359;DHT22;42072;48.044;14.416;2024-02-26T07:48:24;1.30;99.90
38359;DHT22;42072;48.044;14.416;2024-02-26T07:50:51;1.40;99.90
38359;DHT22;42072;48.044;14.416;2024-02-26T07:53:18;1.40;99.90
38359;DHT22;42072;48.044;14.416;2024-02-26T07:55:45;1.50;99.90
38359;DHT22;42072;48.044;14.416;2024-02-26T07:58:12;1.60;99.90
38359;DHT22;42072;48.044;14.416;2024-02-26T08:00:39;1.70;99.90
38359;DHT22;42072;48.044;14.416;2024-02-26T08:03:06;1.70;99.90
38359;DHT22;42072;48.044;14.416;2024-02-26T08:05:34;1.90;99.90
38359;DHT22;42072;48.044;14.416;2024-02-26T08:08:03;2.00;99.90
38359;DHT22;42072;48.044;14.416;2024-02-26T08:10:30;2.10;99.90
38359;DHT22;42072;48.044;14.416;2024-02-26T08:12:59;2.20;94.70
38359;DHT22;42072;48.044;14.416;2024-02-26T08:15:32;2.30;54.40
38359;DHT22;42072;48.044;14.416;2024-02-26T08:18:01;2.40;56.30
38359;DHT22;42072;48.044;14.416;2024-02-26T08:20:31;2.60;63.20
38359;DHT22;42072;48.044;14.416;2024-02-26T08:22:58;2.80;53.90
38359;DHT22;42072;48.044;14.416;2024-02-26T08:25:25;3.00;1.00
38359;DHT22;42072;48.044;14.416;2024-02-26T08:27:52;3.00;1.00
38359;DHT22;42072;48.044;14.416;2024-02-26T08:30:19;3.30;1.00
38359;DHT22;42072;48.044;14.416;2024-02-26T08:32:47;3.30;1.00
38359;DHT22;42072;48.044;14.416;2024-02-26T08:35:18;3.50;1.00
38359;DHT22;42072;48.044;14.416;2024-02-26T08:37:46;3.80;1.00
38359;DHT22;42072;48.044;14.416;2024-02-26T08:40:14;3.90;99.90
38359;DHT22;42072;48.044;14.416;2024-02-26T08:42:41;4.00;99.90
38359;DHT22;42072;48.044;14.416;2024-02-26T08:45:09;4.20;99.90
38359;DHT22;42072;48.044;14.416;2024-02-26T08:47:36;4.40;99.90
38359;DHT22;42072;48.044;14.416;2024-02-26T08:50:03;4.60;99.90
38359;DHT22;42072;48.044;14.416;2024-02-26T08:52:30;4.40;99.90
38359;DHT22;42072;48.044;14.416;2024-02-26T08:54:57;4.40;90.60
38359;DHT22;42072;48.044;14.416;2024-02-26T08:57:25;4.50;96.80
38359;DHT22;42072;48.044;14.416;2024-02-26T08:59:54;4.60;92.20
38359;DHT22;42072;48.044;14.416;2024-02-26T09:02:21;4.90;81.70
38359;DHT22;42072;48.044;14.416;2024-02-26T09:04:48;5.00;34.10
38359;DHT22;42072;48.044;14.416;2024-02-26T09:07:18;5.10;7.70
38359;DHT22;42072;48.044;14.416;2024-02-26T09:09:45;5.20;2.30
38359;DHT22;42072;48.044;14.416;2024-02-26T09:12:12;5.20;10.60
38359;DHT22;42072;48.044;14.416;2024-02-26T09:14:39;5.20;1.00
38359;DHT22;42072;48.044;14.416;2024-02-26T09:17:06;5.20;41.50
38359;DHT22;42072;48.044;14.416;2024-02-26T09:19:34;5.50;35.60
38359;DHT22;42072;48.044;14.416;2024-02-26T09:22:01;5.80;1.00
38359;DHT22;42072;48.044;14.416;2024-02-26T09:24:28;5.70;1.00
38359;DHT22;42072;48.044;14.416;2024-02-26T09:26:55;6.00;1.00
38359;DHT22;42072;48.044;14.416;2024-02-26T09:29:23;6.10;1.00
38359;DHT22;42072;48.044;14.416;2024-02-26T09:31:50;6.10;1.00
38359;DHT22;42072;48.044;14.416;2024-02-26T09:34:17;6.30;1.00
38359;DHT22;42072;48.044;14.416;2024-02-26T09:36:44;6.20;1.00
38359;DHT22;42072;48.044;14.416;2024-02-26T09:39:11;6.10;1.00
38359;DHT22;42072;48.044;14.416;2024-02-26T09:41:39;5.90;1.00
38359;DHT22;42072;48.044;14.416;2024-02-26T09:44:06;5.90;1.00
38359;DHT22;42072;48.044;14.416;2024-02-26T09:46:34;6.20;1.00
38359;DHT22;42072;48.044;14.416;2024-02-26T09:49:01;6.00;1.00
38359;DHT22;42072;48.044;14.416;2024-02-26T09:51:29;6.20;1.00
38359;DHT22;42072;48.044;14.416;2024-02-26T09:53:56;6.30;1.00
38359;DHT22;42072;48.044;14.416;2024-02-26T09:56:26;6.60;1.00
38359;DHT22;42072;48.044;14.416;2024-02-26T09:58:53;7.00;1.00
38359;DHT22;42072;48.044;14.416;2024-02-26T10:01:21;7.20;99.90
38359;DHT22;42072;48.044;14.416;2024-02-26T10:03:55;7.30;99.90
38359;DHT22;42072;48.044;14.416;2024-02-26T10:06:25;7.50;99.90
38359;DHT22;42072;48.044;14.416;2024-02-26T10:08:53;7.70;99.90
38359;DHT22;42072;48.044;14.416;2024-02-26T10:11:21;8.10;99.90
38359;DHT22;42072;48.044;14.416;2024-02-26T10:13:49;8.10;99.90
38359;DHT22;42072;48.044;14.416;2024-02-26T10:16:16;8.20;99.90
38359;DHT22;42072;48.044;14.416;2024-02-26T10:18:49;8.10;99.90
38359;DHT22;42072;48.044;14.416;2024-02-26T10:21:25;8.00;99.90
38359;DHT22;42072;48.044;14.416;2024-02-26T10:23:52;8.30;99.90
38359;DHT22;42072;48.044;14.416;2024-02-26T10:26:21;8.70;99.90
38359;DHT22;42072;48.044;14.416;2024-02-26T10:28:49;8.30;99.90
38359;DHT22;42072;48.044;14.416;2024-02-26T10:31:21;8.40;99.90
38359;DHT22;42072;48.044;14.416;2024-02-26T10:33:49;8.50;99.90
38359;DHT22;42072;48.044;14.416;2024-02-26T10:36:17;8.40;99.90
38359;DHT22;42072;48.044;14.416;2024-02-26T10:38:44;8.30;99.90
38359;DHT22;42072;48.044;14.416;2024-02-26T10:41:14;8.20;99.90
38359;DHT22;42072;48.044;14.416;2024-02-26T10:43:42;8.20;99.90
38359;DHT22;42072;48.044;14.416;2024-02-26T10:46:10;8.20;99.90
38359;DHT22;42072;48.044;14.416;2024-02-26T10:48:37;8.40;99.90
38359;DHT22;42072;48.044;14.416;2024-02-26T10:51:05;8.30;99.90
38359;DHT22;42072;48.044;14.416;2024-02-26T10:53:32;8.40;99.90
38359;DHT22;42072;48.044;14.416;2024-02-26T10:56:02;8.30;99.90
38359;DHT22;42072;48.044;14.416;2024-02-26T10:58:30;8.60;99.90
38359;DHT22;42072;48.044;14.416;2024-02-26T11:00:58;8.90;99.90
38359;DHT22;42072;48.044;14.416;2024-02-26T11:03:26;8.80;99.90
38359;DHT22;42072;48.044;14.416;2024-02-26T11:05:53;8.80;99.90
38359;DHT22;42072;48.044;14.416;2024-02-26T11:08:21;9.10;99.90
38359;DHT22;42072;48.044;14.416;2024-02-26T11:10:48;9.40;99.90
38359;DHT22;42072;48.044;14.416;2024-02-26T11:13:17;9.50;99.90
38359;DHT22;42072;48.044;14.416;2024-02-26T11:15:46;9.60;99.90
38359;DHT22;42072;48.044;14.416;2024-02-26T11:18:17;9.70;99.90
38359;DHT22;42072;48.044;14.416;2024-02-26T11:20:46;9.80;99.90
38359;DHT22;42072;48.044;14.416;2024-02-26T11:23:15;9.90;99.90
38359;DHT22;42072;48.044;14.416;2024-02-26T11:25:45;10.00;99.90
38359;DHT22;42072;48.044;14.416;2024-02-26T11:28:14;10.10;99.90
38359;DHT22;42072;48.044;14.416;2024-02-26T11:30:43;10.10;99.90
38359;DHT22;42072;48.044;14.416;2024-02-26T11:33:11;9.90;99.90
38359;DHT22;42072;48.044;14.416;2024-02-26T11:35:39;10.20;99.90
38359;DHT22;42072;48.044;14.416;2024-02-26T11:38:06;10.40;99.90
38359;DHT22;42072;48.044;14.416;2024-02-26T11:40:37;10.80;99.90
38359;DHT22;42072;48.044;14.416;2024-02-26T11:43:08;10.90;99.90
38359;DHT22;42072;48.044;14.416;2024-02-26T11:45:47;11.00;99.90
38359;DHT22;42072;48.044;14.416;2024-02-26T11:48:16;11.10;99.90
38359;DHT22;42072;48.044;14.416;2024-02-26T11:50:55;11.10;99.90
38359;DHT22;42072;48.044;14.416;2024-02-26T11:53:29;11.00;99.90
38359;DHT22;42072;48.044;14.416;2024-02-26T11:56:19;10.90;99.90
38359;DHT22;42072;48.044;14.416;2024-02-26T11:58:47;10.70;99.90
38359;DHT22;42072;48.044;14.416;2024-02-26T12:04:04;10.30;99.90
38359;DHT22;42072;48.044;14.416;2024-02-26T12:06:39;10.10;99.90
38359;DHT22;42072;48.044;14.416;2024-02-26T12:09:08;10.30;99.90
38359;DHT22;42072;48.044;14.416;2024-02-26T12:11:39;10.30;99.90
38359;DHT22;42072;48.044;14.416;2024-02-26T12:14:07;10.40;99.90
38359;DHT22;42072;48.044;14.416;2024-02-26T12:16:38;10.30;99.90
38359;DHT22;42072;48.044;14.416;2024-02-26T12:19:08;10.40;99.90
38359;DHT22;42072;48.044;14.416;2024-02-26T12:21:36;10.50;99.90
38359;DHT22;42072;48.044;14.416;2024-02-26T12:24:10;10.40;99.90
38359;DHT22;42072;48.044;14.416;2024-02-26T12:26:38;10.50;99.90
38359;DHT22;42072;48.044;14.416;2024-02-26T12:29:06;10.30;99.90
38359;DHT22;42072;48.044;14.416;2024-02-26T12:31:33;10.40;99.90
38359;DHT22;42072;48.044;14.416;2024-02-26T12:34:00;10.40;99.90
38359;DHT22;42072;48.044;14.416;2024-02-26T12:36:28;10.40;99.90
38359;DHT22;42072;48.044;14.416;2024-02-26T12:38:56;10.40;99.90
38359;DHT22;42072;48.044;14.416;2024-02-26T12:41:23;10.40;99.90
38359;DHT22;42072;48.044;14.416;2024-02-26T12:43:50;10.30;99.90
38359;DHT22;42072;48.044;14.416;2024-02-26T12:46:17;10.20;99.90
38359;DHT22;42072;48.044;14.416;2024-02-26T12:48:44;10.30;99.90
38359;DHT22;42072;48.044;14.416;2024-02-26T12:51:14;10.30;99.90
38359;DHT22;42072;48.044;14.416;2024-02-26T12:53:43;10.50;99.90
38359;DHT22;42072;48.044;14.416;2024-02-26T12:56:11;10.60;99.90
38359;DHT22;42072;48.044;14.416;2024-02-26T12:58:41;10.30;99.90
38359;DHT22;42072;48.044;14.416;2024-02-26T13:01:08;10.30;99.90
38359;DHT22;42072;48.044;14.416;2024-02-26T13:03:40;10.40;99.90
38359;DHT22;42072;48.044;14.416;2024-02-26T13:06:09;10.40;99.90
38359;DHT22;42072;48.044;14.416;2024-02-26T13:08:36;10.60;99.90
38359;DHT22;42072;48.044;14.416;2024-02-26T13:11:03;10.50;99.90
38359;DHT22;42072;48.044;14.416;2024-02-26T13:13:31;10.60;99.90
38359;DHT22;42072;48.044;14.416;2024-02-26T13:16:05;10.60;99.90
38359;DHT22;42072;48.044;14.416;2024-02-26T13:18:35;10.60;99.90
38359;DHT22;42072;48.044;14.416;2024-02-26T13:21:10;10.70;99.90
38359;DHT22;42072;48.044;14.416;2024-02-26T13:23:41;10.90;99.90
38359;DHT22;42072;48.044;14.416;2024-02-26T13:26:08;10.90;99.90
38359;DHT22;42072;48.044;14.416;2024-02-26T13:28:38;10.90;99.90
38359;DHT22;42072;48.044;14.416;2024-02-26T13:31:05;10.90;99.90
38359;DHT22;42072;48.044;14.416;2024-02-26T13:33:34;10.90;99.90
38359;DHT22;42072;48.044;14.416;2024-02-26T13:36:02;10.80;99.90
38359;DHT22;42072;48.044;14.416;2024-02-26T13:38:29;10.80;99.90
38359;DHT22;42072;48.044;14.416;2024-02-26T13:40:56;11.00;99.90
38359;DHT22;42072;48.044;14.416;2024-02-26T13:43:23;11.00;99.90
38359;DHT22;42072;48.044;14.416;2024-02-26T13:45:51;10.80;99.90
38359;DHT22;42072;48.044;14.416;2024-02-26T13:48:18;10.80;99.90
38359;DHT22;42072;48.044;14.416;2024-02-26T13:50:46;10.70;99.90
38359;DHT22;42072;48.044;14.416;2024-02-26T13:53:13;10.80;99.90
38359;DHT22;42072;48.044;14.416;2024-02-26T13:55:41;11.10;99.90
38359;DHT22;42072;48.044;14.416;2024-02-26T13:58:11;11.10;99.90
38359;DHT22;42072;48.044;14.416;2024-02-26T14:00:40;11.00;99.90
38359;DHT22;42072;48.044;14.416;2024-02-26T14:03:09;11.00;99.90
38359;DHT22;42072;48.044;14.416;2024-02-26T14:05:37;11.10;99.90
38359;DHT22;42072;48.044;14.416;2024-02-26T14:08:04;11.20;99.90
38359;DHT22;42072;48.044;14.416;2024-02-26T14:10:32;11.10;99.90
38359;DHT22;42072;48.044;14.416;2024-02-26T14:12:59;11.20;99.90
38359;DHT22;42072;48.044;14.416;2024-02-26T14:15:27;11.20;99.90
38359;DHT22;42072;48.044;14.416;2024-02-26T14:17:56;11.30;99.90
38359;DHT22;42072;48.044;14.416;2024-02-26T14:20:24;11.00;99.90
38359;DHT22;42072;48.044;14.416;2024-02-26T14:22:51;10.90;99.90
38359;DHT22;42072;48.044;14.416;2024-02-26T14:25:21;11.00;99.90
38359;DHT22;42072;48.044;14.416;2024-02-26T14:27:51;11.00;99.90
38359;DHT22;42072;48.044;14.416;2024-02-26T14:30:18;11.00;99.90
38359;DHT22;42072;48.044;14.416;2024-02-26T14:32:45;10.90;99.90
38359;DHT22;42072;48.044;14.416;2024-02-26T14:35:13;10.90;99.90
38359;DHT22;42072;48.044;14.416;2024-02-26T14:37:43;11.00;99.90
38359;DHT22;42072;48.044;14.416;2024-02-26T14:40:14;10.90;99.90
38359;DHT22;42072;48.044;14.416;2024-02-26T14:42:42;11.00;99.90
38359;DHT22;42072;48.044;14.416;2024-02-26T14:45:12;11.10;99.90
38359;DHT22;42072;48.044;14.416;2024-02-26T14:47:42;11.10;99.90
38359;DHT22;42072;48.044;14.416;2024-02-26T14:50:19;11.10;99.90
38359;DHT22;42072;48.044;14.416;2024-02-26T14:52:51;10.90;99.90
38359;DHT22;42072;48.044;14.416;2024-02-26T14:55:22;10.90;99.90
38359;DHT22;42072;48.044;14.416;2024-02-26T14:57:53;10.90;99.90
38359;DHT22;42072;48.044;14.416;2024-02-26T15:00:24;10.80;99.90
38359;DHT22;42072;48.044;14.416;2024-02-26T15:02:51;10.70;99.90
38359;DHT22;42072;48.044;14.416;2024-02-26T15:05:21;10.60;99.90
38359;DHT22;42072;48.044;14.416;2024-02-26T15:07:52;10.60;99.90
38359;DHT22;42072;48.044;14.416;2024-02-26T15:19:17;10.40;99.90
38359;DHT22;42072;48.044;14.416;2024-02-26T15:21:58;10.20;99.90
38359;DHT22;42072;48.044;14.416;2024-02-26T15:24:47;10.20;99.90
38359;DHT22;42072;48.044;14.416;2024-02-26T15:27:47;10.10;99.90
38359;DHT22;42072;48.044;14.416;2024-02-26T15:30:15;10.10;99.90
38359;DHT22;42072;48.044;14.416;2024-02-26T15:32:42;10.10;99.90
38359;DHT22;42072;48.044;14.416;2024-02-26T15:35:10;10.00;99.90
38359;DHT22;42072;48.044;14.416;2024-02-26T15:37:37;10.00;99.90
38359;DHT22;42072;48.044;14.416;2024-02-26T15:40:04;9.90;99.90
38359;DHT22;42072;48.044;14.416;2024-02-26T15:42:32;9.90;99.90
38359;DHT22;42072;48.044;14.416;2024-02-26T15:45:00;9.90;99.90
38359;DHT22;42072;48.044;14.416;2024-02-26T15:47:28;9.90;99.90
38359;DHT22;42072;48.044;14.416;2024-02-26T15:49:54;9.80;99.90